»·PEaware :: ASA30 KSNA-KTUS

ASA30 :: KSNA-KTUS

FLIGHT INFORMATION

Flight Status: Arrived
Operator:
Alaska Airlines
More flights by this operator :: More flights under this callsign
Pilot: Steve F. (26981)
Aircraft: BOEING 737-800
(B738)
More flights by this aircraft type
Origin: KSNA John Wayne-Orange Co
United States
Destination: KTUS Tucson Intl
United States
More flights between these airports :: More routes between these airports
Route: +PIGGN2 CNERY BLH GBN DINGO5
File this flight plan on PilotEdge
Remarks:
Altitude:
(Current/Filed)
33,000ft
Speed:
(Current/Filed)
430kts
Departed: 22-Aug-20 07:27 AM
Arrived: 22-Aug-20 08:27 AM
Distance/Time
Traveled:
361nm/1:00
Distance/Time
To Go:
Arrived

Flight Plot

Page will automatically refresh every two minutes.

Flight plan parsing failed; only flown route is shown


Map Options




Map Legend


Flown Route
Filed Route
Departure Airport
Arrival Airport
Navaid (VOR, NDB)
Fix

Horizontal Profiles

Position Reports

Time Latitude Longitude Heading Altitude Ground
Speed
22-Aug-20 07:05 33.677944 -117.862889 118 64ft 0kts
22-Aug-20 07:06 33.677944 -117.862889 118 64ft 0kts
22-Aug-20 07:07 33.677944 -117.862889 118 64ft 0kts
22-Aug-20 07:08 33.677944 -117.862889 118 64ft 0kts
22-Aug-20 07:09 33.677944 -117.862889 118 64ft 0kts
22-Aug-20 07:10 33.677944 -117.862889 118 64ft 0kts
22-Aug-20 07:11 33.677944 -117.862889 118 64ft 0kts
22-Aug-20 07:12 33.677944 -117.862889 118 64ft 0kts
22-Aug-20 07:13 33.677944 -117.862889 118 64ft 0kts
22-Aug-20 07:14 33.677944 -117.862889 118 64ft 0kts
22-Aug-20 07:16 33.677944 -117.862889 118 64ft 0kts
22-Aug-20 07:17 33.677944 -117.862889 118 64ft 0kts
22-Aug-20 07:18 33.677944 -117.862889 118 64ft 0kts
22-Aug-20 07:19 33.677944 -117.862889 118 64ft 0kts
22-Aug-20 07:20 33.677944 -117.862889 118 64ft 0kts
22-Aug-20 07:21 33.677946 -117.863620 50 64ft 2kts
22-Aug-20 07:22 33.677822 -117.863746 28 64ft 0kts
22-Aug-20 07:23 33.677824 -117.863745 28 64ft 0kts
22-Aug-20 07:24 33.677990 -117.863707 6 64ft 5kts
22-Aug-20 07:25 33.680525 -117.862853 295 64ft 10kts
22-Aug-20 07:26 33.681343 -117.865243 207 64ft 0kts
22-Aug-20 07:27 33.653120 -117.883528 206 1248ft 179kts
22-Aug-20 07:28 33.598131 -117.896821 186 2992ft 233kts
22-Aug-20 07:29 33.530670 -117.879128 147 5230ft 268kts
22-Aug-20 07:30 33.486534 -117.805690 115 7852ft 283kts
22-Aug-20 07:31 33.480244 -117.711391 79 10573ft 294kts
22-Aug-20 07:32 33.516902 -117.621977 60 13347ft 314kts
22-Aug-20 07:33 33.565212 -117.520613 66 14361ft 381kts
22-Aug-20 07:33 33.561772 -117.416337 107 16326ft 388kts
22-Aug-20 07:35 33.517263 -117.272365 109 19119ft 397kts
22-Aug-20 07:35 33.502895 -117.161681 93 20685ft 413kts
22-Aug-20 07:36 33.500610 -117.021813 93 22377ft 426kts
22-Aug-20 07:38 33.497407 -116.853093 92 24053ft 441kts
22-Aug-20 07:38 33.496272 -116.729374 92 25148ft 450kts
22-Aug-20 07:39 33.494354 -116.578018 92 26371ft 459kts
22-Aug-20 07:40 33.492144 -116.423540 92 27464ft 468kts
22-Aug-20 07:41 33.490009 -116.266880 92 28465ft 475kts
22-Aug-20 07:42 33.487329 -116.108343 92 29777ft 473kts
22-Aug-20 07:43 33.509292 -115.953274 72 30984ft 479kts
22-Aug-20 07:44 33.553954 -115.802401 72 32173ft 481kts
22-Aug-20 07:45 33.598101 -115.650279 72 32882ft 485kts
22-Aug-20 07:46 33.623608 -115.494770 95 32891ft 477kts
22-Aug-20 07:47 33.612244 -115.336197 94 32892ft 477kts
22-Aug-20 07:48 33.607393 -115.177375 93 32895ft 477kts
22-Aug-20 07:49 33.603557 -115.018245 93 32903ft 477kts
22-Aug-20 07:50 33.598978 -114.859335 93 32908ft 476kts
22-Aug-20 07:51 33.578797 -114.703307 109 32910ft 473kts
22-Aug-20 07:52 33.534581 -114.554971 111 32909ft 472kts
22-Aug-20 07:53 33.489997 -114.406992 111 32907ft 472kts
22-Aug-20 07:54 33.445750 -114.258954 111 32915ft 472kts
22-Aug-20 07:55 33.401152 -114.110739 111 32909ft 472kts
22-Aug-20 07:56 33.356461 -113.963321 111 32911ft 473kts
22-Aug-20 07:57 33.311508 -113.815747 111 32916ft 473kts
22-Aug-20 07:58 33.266054 -113.667365 111 32925ft 474kts
22-Aug-20 07:59 33.220655 -113.519821 111 32628ft 475kts
22-Aug-20 08:00 33.174900 -113.371863 111 30449ft 476kts
22-Aug-20 08:01 33.128992 -113.224141 111 28250ft 469kts
22-Aug-20 08:02 33.084389 -113.081252 111 26047ft 450kts
22-Aug-20 08:03 33.041728 -112.944464 111 24123ft 430kts
22-Aug-20 08:04 32.999547 -112.810801 111 23984ft 431kts
22-Aug-20 08:05 32.957182 -112.677226 112 23987ft 431kts
22-Aug-20 08:06 32.907853 -112.546951 116 23389ft 430kts
22-Aug-20 08:07 32.858480 -112.420550 115 21292ft 413kts
22-Aug-20 08:08 32.811224 -112.299088 115 19188ft 395kts
22-Aug-20 08:09 32.766658 -112.183522 115 17101ft 380kts
22-Aug-20 08:10 32.722588 -112.070101 115 14984ft 371kts
22-Aug-20 08:11 32.679512 -111.959530 114 12889ft 370kts
22-Aug-20 08:12 32.636899 -111.850357 114 11941ft 358kts
22-Aug-20 08:13 32.594325 -111.742219 114 11942ft 362kts
22-Aug-20 08:14 32.552692 -111.637757 117 11939ft 326kts
22-Aug-20 08:15 32.502815 -111.555634 126 11956ft 299kts
22-Aug-20 08:16 32.452590 -111.476092 126 10857ft 300kts
22-Aug-20 08:17 32.402794 -111.397464 126 9658ft 298kts
22-Aug-20 08:18 32.356487 -111.317044 112 8455ft 293kts
22-Aug-20 08:19 32.327493 -111.227795 110 7431ft 282kts
22-Aug-20 08:20 32.291557 -111.152524 132 7059ft 249kts
22-Aug-20 08:21 32.246495 -111.093095 134 6006ft 239kts
22-Aug-20 08:22 32.201289 -111.039509 135 4769ft 221kts
22-Aug-20 08:23 32.160558 -110.991586 134 3691ft 188kts
22-Aug-20 08:24 32.126817 -110.951962 134 2749ft 161kts
22-Aug-20 08:25 32.108992 -110.931035 135 2651ft 41kts
22-Aug-20 08:26 32.109619 -110.930113 316 2651ft 15kts
22-Aug-20 08:27 32.114653 -110.936038 315 2651ft 32kts
22-Aug-20 08:28 32.119000 -110.938725 39 2651ft 9kts
22-Aug-20 08:29 32.119164 -110.938562 40 2651ft 0kts
22-Aug-20 08:30 32.119164 -110.938562 40 2651ft 0kts

Navigation Log

Ident Type
Flight plan parsing failed, navigation log unavailable